Pace, FL

12:26 AM CST on March 06, 2015 (GMT -0600)
Pensacola Naval Air Station | Change Station
CLOSE
Current Station
Airport
Location: Pensacola NAS,
Elevation: 30 ft
Nearby Weather Stations

Elev 30 ft 30.36 °N, 87.32 °W | Updated 30 minutes ago

Partly Cloudy
Partly Cloudy
36 °F
Feels Like 27 °F
N
14
Wind Variable Wind from North
Gusts 21 mph

Today
High -- | Low -- °F
--% Chance of Precip.
Yesterday
High -- | Low -- °F
Precip. -- in
6:09 AM 5:50 PM
Full, 100% visible
Pressure 30.34 in
Visibility 10.0 miles
Clouds Mostly Cloudy 10000 ft
Windchill 27 °F
Dew Point 28 °F
Humidity 73%
Rainfall 0.24 in
Snow Depth Not available.
UV 0 out of 12
Pollen 5.30 out of 12
Air Quality Not available.
Flu Activity Not available.
METAR KNPA 060556Z AUTO 36012G18KT 10SM BKN100 02/M02 A3033 RMK AO2 SLP272 T00221022 10044 20022 402060022 50001 $

More Conditions Fewer Conditions

Pressure 30.34 in
Visibility 10.0 miles
Clouds Mostly Cloudy 10000 ft
Windchill 27 °F
Dew Point 28 °F
Humidity 73%
Rainfall 0.24 in
Snow Depth Not available.
UV 0 out of 12
Pollen 5.30 out of 12
Air Quality Not available.
Flu Activity Not available.
METAR KNPA 060556Z AUTO 36012G18KT 10SM BKN100 02/M02 A3033 RMK AO2 SLP272 T00221022 10044 20022 402060022 50001 $

More Conditions Fewer Conditions

10-Day Weather Forecast

Almanac

Astronomy

Mar. 06, 2015 Rise Set
Actual Time
Civil Twilight
Nautical Twilight
Astronomical Twilight
Moon
Length of Visible Light
Length of Day
Tomorrow will be .
, % of the Moon is Illuminated

Today's Extremes

State Highs State Lows

Community

WunderPhotos

Upload Photos

1,803,195 photos uploaded!

WunderBlogs® & News

Nearby

Air Quality

  Air Quality AQ Index Pollutant
Not available.

Snow Depth

Station Depth Elevation

Earthquake Activity

City Distance Mag. Time & Date
Minimum magnitude displayed is 2.5.

Coastal Water Temperatures

Place Temperature

Nearby Weather Stations